Time;durP1;ratioP1;P1;durP2;ratioP2;P2;SDS_P1;SDS_P2;PMS_P1;PMS_P2;Temp;Humidity;BMP_temperature;BMP_pressure;BME280_temperature;BME280_humidity;BME280_pressure;Samples;Min_cycle;Max_cycle;Signal;HPM_P1;HPM_P2
2022/12/25 00:00:17;;;;;;;2.40;0.90;;;;;;;-144.22;100.00;60274.75;6293622;28;20248;-68
2022/12/25 00:03:22;;;;;;;7.60;1.20;;;;;;;-144.22;100.00;60274.75;6294552;28;20234;-68
2022/12/25 00:06:24;;;;;;;1.47;0.80;;;;;;;-144.22;100.00;60274.75;6296952;28;20232;-68
2022/12/25 00:09:27;;;;;;;3.87;1.00;;;;;;;-144.22;100.00;60274.75;6275452;28;20222;-68
2022/12/25 00:12:29;;;;;;;3.10;0.90;;;;;;;-144.22;100.00;60274.75;6277596;28;20611;-67
2022/12/25 00:15:31;;;;;;;1.40;0.80;;;;;;;-144.22;100.00;60274.75;6294950;28;20568;-67
2022/12/25 00:18:33;;;;;;;3.53;1.00;;;;;;;-144.22;100.00;60274.75;6293634;28;20235;-67
2022/12/25 00:21:35;;;;;;;3.43;1.10;;;;;;;-144.22;100.00;60274.75;6295857;28;20235;-69
2022/12/25 00:24:37;;;;;;;3.90;1.13;;;;;;;-144.22;100.00;60274.75;6292164;28;20391;-68
2022/12/25 00:27:40;;;;;;;4.63;1.07;;;;;;;-144.22;100.00;60274.75;6292701;28;20473;-68
2022/12/25 00:30:42;;;;;;;3.83;1.40;;;;;;;-144.22;100.00;60274.75;6295219;28;20237;-67
2022/12/25 00:33:45;;;;;;;2.40;1.00;;;;;;;-144.22;100.00;60274.75;6272968;28;20239;-68
2022/12/25 00:36:49;;;;;;;3.03;1.17;;;;;;;-144.22;100.00;60274.75;6292668;28;20236;-68
2022/12/25 00:39:52;;;;;;;1.63;0.70;;;;;;;-144.22;100.00;60274.75;6279527;28;20233;-68
2022/12/25 00:42:54;;;;;;;3.37;1.20;;;;;;;-144.22;100.00;60274.75;6292800;28;20279;-68
2022/12/25 00:45:58;;;;;;;2.20;0.80;;;;;;;-144.22;100.00;60274.75;6275937;28;20359;-67
2022/12/25 00:49:00;;;;;;;2.03;1.00;;;;;;;-144.22;100.00;60274.75;6289072;28;20714;-68
2022/12/25 00:52:02;;;;;;;4.20;1.27;;;;;;;-144.22;100.00;60274.75;6282422;28;20312;-68
2022/12/25 00:55:05;;;;;;;5.33;1.10;;;;;;;-144.22;100.00;60274.75;6257371;28;20289;-67
2022/12/25 00:58:07;;;;;;;4.03;0.97;;;;;;;-144.22;100.00;60274.75;6292781;28;20232;-69
2022/12/25 01:01:10;;;;;;;2.27;1.03;;;;;;;-144.22;100.00;60274.75;6292511;28;20324;-68
2022/12/25 01:04:12;;;;;;;3.83;0.90;;;;;;;-144.22;100.00;60274.75;6294329;28;20226;-67
2022/12/25 01:07:17;;;;;;;2.77;1.00;;;;;;;-144.22;100.00;60274.75;6257115;28;20602;-68
2022/12/25 01:10:22;;;;;;;3.77;1.17;;;;;;;-144.22;100.00;60274.75;6296185;28;20321;-67
2022/12/25 01:13:25;;;;;;;5.17;1.40;;;;;;;-144.22;100.00;60274.75;6299068;28;20222;-69
2022/12/25 01:16:28;;;;;;;2.97;0.93;;;;;;;-144.22;100.00;60274.75;6294395;28;20716;-68
2022/12/25 01:19:30;;;;;;;3.83;1.00;;;;;;;-144.22;100.00;60274.75;6292083;28;20605;-68
2022/12/25 01:22:32;;;;;;;2.80;0.90;;;;;;;-144.22;100.00;60274.75;6272410;28;20707;-68
2022/12/25 01:25:34;;;;;;;2.23;1.00;;;;;;;-144.22;100.00;60274.75;6276501;28;20330;-68
2022/12/25 01:28:37;;;;;;;6.30;3.30;;;;;;;-144.22;100.00;60274.75;6292114;28;20302;-68
2022/12/25 01:31:39;;;;;;;5.10;2.30;;;;;;;-144.22;100.00;60274.75;6259854;28;20683;-67
2022/12/25 01:34:41;;;;;;;2.83;1.47;;;;;;;-144.22;100.00;60274.75;6275764;28;20232;-68
2022/12/25 01:37:43;;;;;;;4.27;1.80;;;;;;;-144.22;100.00;60274.75;6289286;28;20324;-67
2022/12/25 01:40:46;;;;;;;3.53;1.20;;;;;;;-144.22;100.00;60274.75;6292437;28;20702;-68
2022/12/25 01:44:00;;;;;;;3.57;1.30;;;;;;;-144.22;100.00;60274.75;6290899;28;20239;-68
2022/12/25 01:47:06;;;;;;;3.27;1.20;;;;;;;-144.22;100.00;60274.75;6276936;28;21262;-67
2022/12/25 01:50:08;;;;;;;2.33;1.27;;;;;;;-144.22;100.00;60274.75;6288721;28;20707;-68
2022/12/25 01:53:10;;;;;;;2.57;0.93;;;;;;;-144.22;100.00;60274.75;6271862;28;20781;-68
2022/12/25 01:56:13;;;;;;;6.83;1.70;;;;;;;-144.22;100.00;60274.75;6272997;28;20648;-68
2022/12/25 01:59:18;;;;;;;1.23;0.83;;;;;;;-144.22;100.00;60274.75;6287977;28;20602;-68
2022/12/25 02:02:21;;;;;;;2.80;1.10;;;;;;;-144.22;100.00;60274.75;6274322;28;20237;-69
2022/12/25 02:05:28;;;;;;;2.40;1.47;;;;;;;-144.22;100.00;60274.75;6289196;28;20245;-68
2022/12/25 02:08:31;;;;;;;2.57;0.90;;;;;;;-144.22;100.00;60274.75;6288349;28;20226;-68
2022/12/25 02:14:58;;;;;;;3.03;0.93;;;;;;;-144.22;100.00;60274.75;6291315;28;20230;-68
2022/12/25 02:18:27;;;;;;;3.30;1.10;;;;;;;-144.22;100.00;60274.75;6290322;28;20228;-68
2022/12/25 02:21:59;;;;;;;2.67;1.20;;;;;;;-144.22;100.00;60274.75;6285161;28;20256;-68
2022/12/25 02:25:19;;;;;;;8.10;1.50;;;;;;;-144.22;100.00;60274.75;6288819;28;20622;-68
2022/12/25 02:28:24;;;;;;;4.00;1.60;;;;;;;-144.22;100.00;60274.75;6290421;28;20407;-68
2022/12/25 02:31:49;;;;;;;3.67;1.60;;;;;;;-144.22;100.00;60274.75;6292981;28;20233;-68
2022/12/25 02:35:01;;;;;;;6.50;1.30;;;;;;;-144.22;100.00;60274.75;6264676;28;20249;-67
2022/12/25 02:38:11;;;;;;;3.70;1.20;;;;;;;-144.22;100.00;60274.75;6271503;28;20343;-68
2022/12/25 02:41:16;;;;;;;3.90;1.23;;;;;;;-144.22;100.00;60274.75;6275004;28;20234;-67
2022/12/25 03:08:17;;;;;;;1.57;0.97;;;;;;;-144.22;100.00;60274.75;6288912;28;20701;-68
2022/12/25 03:11:32;;;;;;;2.07;0.80;;;;;;;-144.22;100.00;60274.75;6272910;28;20225;-67
2022/12/25 03:17:58;;;;;;;1.70;0.97;;;;;;;-144.22;100.00;60274.75;6290055;28;20225;-67
2022/12/25 03:27:53;;;;;;;5.73;1.27;;;;;;;-144.22;100.00;60274.75;6247051;28;20239;-67
2022/12/25 03:31:11;;;;;;;5.47;1.10;;;;;;;-144.22;100.00;60274.75;6289857;28;20221;-68
2022/12/25 04:36:18;;;;;;;6.63;1.13;;;;;;;-144.22;100.00;60274.75;6292383;28;20310;-67
2022/12/25 04:39:20;;;;;;;2.03;0.80;;;;;;;-144.22;100.00;60274.75;6275054;28;20237;-68
2022/12/25 04:42:23;;;;;;;4.50;1.40;;;;;;;-144.22;100.00;60274.75;6271503;28;20259;-68
2022/12/25 04:45:25;;;;;;;4.13;0.97;;;;;;;-144.22;100.00;60274.75;6282963;28;20234;-67
2022/12/25 04:48:29;;;;;;;3.30;0.80;;;;;;;-144.22;100.00;60274.75;6292545;28;20221;-68
2022/12/25 04:51:31;;;;;;;5.37;0.90;;;;;;;-144.22;100.00;60274.75;6258722;28;20537;-67
2022/12/25 04:54:33;;;;;;;6.00;1.17;;;;;;;-144.22;100.00;60274.75;6292367;28;20224;-68
2022/12/25 04:57:35;;;;;;;2.70;0.77;;;;;;;-144.22;100.00;60274.75;6288982;28;20229;-69
2022/12/25 05:00:37;;;;;;;3.17;0.90;;;;;;;-144.22;100.00;60274.75;6290943;28;20224;-67
2022/12/25 05:03:40;;;;;;;3.50;1.07;;;;;;;-144.22;100.00;60274.75;6291924;28;20218;-68
2022/12/25 05:06:42;;;;;;;2.07;0.80;;;;;;;-144.22;100.00;60274.75;6272645;28;20709;-67
2022/12/25 05:09:44;;;;;;;5.70;1.10;;;;;;;-144.22;100.00;60274.75;6275207;28;20227;-67
2022/12/25 05:12:46;;;;;;;2.87;0.80;;;;;;;-144.22;100.00;60274.75;6291754;28;20708;-67
2022/12/25 05:15:48;;;;;;;3.67;0.77;;;;;;;-144.22;100.00;60274.75;6292327;28;20227;-68
2022/12/25 05:18:51;;;;;;;1.70;0.93;;;;;;;-144.22;100.00;60274.75;6294018;28;20238;-67
2022/12/25 05:21:53;;;;;;;3.13;1.00;;;;;;;-144.22;100.00;60274.75;6274519;28;20217;-67
2022/12/25 05:24:55;;;;;;;5.53;0.87;;;;;;;-144.22;100.00;60274.75;6293233;28;20708;-67
2022/12/25 05:27:57;;;;;;;2.63;1.20;;;;;;;-144.22;100.00;60274.75;6241764;28;20258;-67
2022/12/25 05:30:59;;;;;;;4.57;1.07;;;;;;;-144.22;100.00;60274.75;6246271;28;20726;-69
2022/12/25 05:34:02;;;;;;;5.37;1.60;;;;;;;-144.22;100.00;60274.75;6243907;28;20235;-67
2022/12/25 05:37:04;;;;;;;1.80;0.90;;;;;;;-144.22;100.00;60274.75;6240806;28;20259;-67
2022/12/25 05:40:07;;;;;;;3.17;0.60;;;;;;;-144.22;100.00;60274.75;6243758;28;20255;-67
2022/12/25 05:43:09;;;;;;;1.90;0.80;;;;;;;-144.22;100.00;60274.75;6241541;28;20270;-68
2022/12/25 05:46:12;;;;;;;3.03;0.90;;;;;;;-144.22;100.00;60274.75;6242829;28;20330;-68
2022/12/25 05:49:15;;;;;;;3.73;0.97;;;;;;;-144.22;100.00;60274.75;6245843;28;20567;-67
2022/12/25 05:52:16;;;;;;;2.93;0.87;;;;;;;-144.22;100.00;60274.75;6241295;28;20694;-68
2022/12/25 05:55:19;;;;;;;6.23;1.30;;;;;;;-144.22;100.00;60274.75;6238001;28;20246;-68
2022/12/25 05:58:21;;;;;;;4.87;1.47;;;;;;;-144.22;100.00;60274.75;6243146;28;20654;-67
2022/12/25 06:01:26;;;;;;;4.10;0.80;;;;;;;-144.22;100.00;60274.75;6241422;28;20245;-68
2022/12/25 06:04:29;;;;;;;1.87;0.77;;;;;;;-144.22;100.00;60274.75;6243412;28;20232;-67
2022/12/25 06:07:31;;;;;;;3.03;0.90;;;;;;;-144.22;100.00;60274.75;6242432;28;20243;-67
2022/12/25 06:10:33;;;;;;;3.07;0.60;;;;;;;-144.22;100.00;60274.75;6243883;28;20230;-67
2022/12/25 06:13:35;;;;;;;1.07;0.80;;;;;;;-144.22;100.00;60274.75;6236513;28;20235;-67
2022/12/25 06:16:38;;;;;;;1.10;0.80;;;;;;;-144.22;100.00;60274.75;6243087;28;20218;-67
2022/12/25 06:19:41;;;;;;;4.63;0.90;;;;;;;-144.22;100.00;60274.75;6242427;28;20222;-67
2022/12/25 06:22:43;;;;;;;4.93;1.43;;;;;;;-144.22;100.00;60274.75;6240435;28;20328;-67
2022/12/25 06:25:45;;;;;;;2.37;0.80;;;;;;;-144.22;100.00;60274.75;6255416;28;20230;-67
2022/12/25 06:28:47;;;;;;;4.97;1.03;;;;;;;-144.22;100.00;60274.75;6269317;28;20688;-67
2022/12/25 06:31:53;;;;;;;5.20;1.30;;;;;;;-144.22;100.00;60274.75;6291902;28;20230;-68
2022/12/25 06:34:55;;;;;;;2.03;0.93;;;;;;;-144.22;100.00;60274.75;6271827;28;20265;-68
2022/12/25 06:37:57;;;;;;;3.20;1.03;;;;;;;-144.22;100.00;60274.75;6292249;28;20286;-67
2022/12/25 06:41:10;;;;;;;3.70;1.00;;;;;;;-144.22;100.00;60274.75;6270065;28;20709;-67
2022/12/25 06:44:12;;;;;;;6.63;1.30;;;;;;;-144.22;100.00;60274.75;6290955;28;20313;-67
2022/12/25 06:47:15;;;;;;;4.83;0.90;;;;;;;-144.22;100.00;60274.75;6290541;28;20230;-67
2022/12/25 06:50:17;;;;;;;2.00;0.90;;;;;;;-144.22;100.00;60274.75;6276410;28;20613;-67
2022/12/25 06:53:19;;;;;;;3.70;1.20;;;;;;;-144.22;100.00;60274.75;6287059;28;20233;-67
2022/12/25 06:56:24;;;;;;;2.77;1.10;;;;;;;-144.22;100.00;60274.75;6290010;28;20229;-67
2022/12/25 06:59:26;;;;;;;3.97;1.10;;;;;;;-144.22;100.00;60274.75;6288264;28;20617;-67
2022/12/25 07:02:29;;;;;;;5.23;1.20;;;;;;;-144.22;100.00;60274.75;6287305;28;20245;-67
2022/12/25 07:05:32;;;;;;;3.60;1.27;;;;;;;-144.22;100.00;60274.75;6272285;28;20234;-67
2022/12/25 07:08:34;;;;;;;4.20;0.97;;;;;;;-144.22;100.00;60274.75;6278156;28;20225;-67
2022/12/25 07:11:36;;;;;;;4.00;1.33;;;;;;;-144.22;100.00;60274.75;6288404;28;20264;-68
2022/12/25 07:14:39;;;;;;;3.23;1.00;;;;;;;-144.22;100.00;60274.75;6271668;28;20223;-67
2022/12/25 07:17:41;;;;;;;3.13;1.10;;;;;;;-144.22;100.00;60274.75;6289507;28;20234;-69
2022/12/25 07:20:43;;;;;;;4.63;1.17;;;;;;;-144.22;100.00;60274.75;6271386;28;20227;-67
2022/12/25 07:23:48;;;;;;;3.93;1.17;;;;;;;-144.22;100.00;60274.75;6270195;28;20528;-67
2022/12/25 07:26:50;;;;;;;1.60;0.90;;;;;;;-144.22;100.00;60274.75;6291111;28;20231;-68
2022/12/25 07:29:52;;;;;;;3.47;1.30;;;;;;;-144.22;100.00;60274.75;6289192;28;20227;-67
2022/12/25 07:32:55;;;;;;;1.37;0.90;;;;;;;-144.22;100.00;60274.75;6289798;28;20225;-67
2022/12/25 07:35:57;;;;;;;2.73;1.17;;;;;;;-144.22;100.00;60274.75;6274037;28;20238;-67
2022/12/25 07:38:59;;;;;;;5.83;1.40;;;;;;;-144.22;100.00;60274.75;6276090;28;20242;-68
2022/12/25 07:42:01;;;;;;;6.67;1.10;;;;;;;-144.22;100.00;60274.75;6264762;28;20227;-67
2022/12/25 07:45:05;;;;;;;9.07;1.40;;;;;;;-144.22;100.00;60274.75;6266869;28;20219;-67
2022/12/25 07:48:07;;;;;;;7.40;1.67;;;;;;;-144.22;100.00;60274.75;6291383;28;20219;-68
2022/12/25 07:51:17;;;;;;;4.33;1.20;;;;;;;-144.22;100.00;60274.75;6293857;28;20226;-68
2022/12/25 07:54:19;;;;;;;3.33;1.30;;;;;;;-144.22;100.00;60274.75;6293663;28;20229;-67
2022/12/25 07:57:21;;;;;;;3.67;1.00;;;;;;;-144.22;100.00;60274.75;6295097;28;20236;-68
2022/12/25 08:00:28;;;;;;;2.87;0.80;;;;;;;-144.22;100.00;60274.75;6276491;28;20537;-68
2022/12/25 08:03:31;;;;;;;6.47;1.40;;;;;;;-144.22;100.00;60274.75;6296428;28;20645;-68
2022/12/25 08:06:34;;;;;;;4.60;1.20;;;;;;;-144.22;100.00;60274.75;6293166;28;20620;-67
2022/12/25 08:09:36;;;;;;;1.20;0.60;;;;;;;-144.22;100.00;60274.75;6292234;28;20239;-67
2022/12/25 08:12:38;;;;;;;3.10;1.00;;;;;;;-144.22;100.00;60274.75;6291413;28;20744;-67
2022/12/25 08:15:41;;;;;;;5.50;0.90;;;;;;;-144.22;100.00;60274.75;6294437;28;20240;-68
2022/12/25 08:18:43;;;;;;;4.50;1.27;;;;;;;-144.22;100.00;60274.75;6273254;28;20242;-67
2022/12/25 08:21:45;;;;;;;5.23;2.03;;;;;;;-144.22;100.00;60274.75;6275770;28;20288;-67
2022/12/25 08:24:47;;;;;;;6.20;1.30;;;;;;;-144.22;100.00;60274.75;6292327;28;20252;-67
2022/12/25 08:27:49;;;;;;;3.90;0.90;;;;;;;-144.22;100.00;60274.75;6273517;28;20351;-68
2022/12/25 08:30:51;;;;;;;4.07;1.20;;;;;;;-144.22;100.00;60274.75;6295551;28;20213;-67
2022/12/25 08:33:57;;;;;;;4.83;1.23;;;;;;;-144.22;100.00;60274.75;6275289;28;20236;-68
2022/12/25 08:36:59;;;;;;;3.90;1.00;;;;;;;-144.22;100.00;60274.75;6276968;28;20784;-67
2022/12/25 08:40:01;;;;;;;4.97;1.00;;;;;;;-144.22;100.00;60274.75;6287749;28;20236;-67
2022/12/25 08:43:03;;;;;;;5.33;1.60;;;;;;;-144.22;100.00;60274.75;6292292;28;20710;-68
2022/12/25 08:46:06;;;;;;;3.93;1.43;;;;;;;-144.22;100.00;60274.75;6272740;28;20330;-67
2022/12/25 08:49:08;;;;;;;2.07;0.97;;;;;;;-144.22;100.00;60274.75;6294215;28;20267;-68
2022/12/25 08:52:10;;;;;;;2.03;0.90;;;;;;;-144.22;100.00;60274.75;6292457;28;20280;-68
2022/12/25 08:55:12;;;;;;;4.90;1.07;;;;;;;-144.22;100.00;60274.75;6292303;28;20587;-68
2022/12/25 08:58:15;;;;;;;3.03;0.77;;;;;;;-144.22;100.00;60274.75;6290158;28;20387;-67
2022/12/25 09:01:17;;;;;;;5.57;1.30;;;;;;;-144.22;100.00;60274.75;6272977;28;20263;-68
2022/12/25 09:04:19;;;;;;;3.30;1.10;;;;;;;-144.22;100.00;60274.75;6272624;28;20264;-67
2022/12/25 09:07:22;;;;;;;5.83;1.43;;;;;;;-144.22;100.00;60274.75;6292001;28;20241;-67
2022/12/25 09:10:24;;;;;;;2.63;1.20;;;;;;;-144.22;100.00;60274.75;6292962;28;20318;-67
2022/12/25 09:13:26;;;;;;;5.17;1.57;;;;;;;-144.22;100.00;60274.75;6289258;28;20222;-67
2022/12/25 09:16:28;;;;;;;5.50;1.60;;;;;;;-144.22;100.00;60274.75;6290110;28;20676;-67
2022/12/25 09:19:30;;;;;;;6.73;1.67;;;;;;;-144.22;100.00;60274.75;6288052;28;20241;-67
2022/12/25 09:22:33;;;;;;;4.70;1.80;;;;;;;-144.22;100.00;60274.75;6290156;28;20231;-67
2022/12/25 09:25:35;;;;;;;5.53;2.23;;;;;;;-144.22;100.00;60274.75;6291042;28;20792;-67
2022/12/25 09:28:37;;;;;;;4.73;2.00;;;;;;;-144.22;100.00;60274.75;6293070;28;20256;-68
2022/12/25 09:31:39;;;;;;;4.10;1.80;;;;;;;-144.22;100.00;60274.75;6299559;28;20739;-68
2022/12/25 09:34:41;;;;;;;4.70;1.80;;;;;;;-144.22;100.00;60274.75;6290749;28;20897;-67
2022/12/25 09:37:43;;;;;;;5.10;2.03;;;;;;;-144.22;100.00;60274.75;6287698;28;20236;-67
2022/12/25 09:40:46;;;;;;;4.93;2.30;;;;;;;-144.22;100.00;60274.75;6291425;28;20241;-67
2022/12/25 09:43:53;;;;;;;4.40;2.67;;;;;;;-144.22;100.00;60274.75;6294128;28;20606;-67
2022/12/25 09:47:04;;;;;;;4.60;2.50;;;;;;;-144.22;100.00;60274.75;6293556;28;20272;-68
2022/12/25 09:50:07;;;;;;;9.77;2.60;;;;;;;-144.22;100.00;60274.75;6291973;28;20659;-68
2022/12/25 09:53:18;;;;;;;6.87;2.13;;;;;;;-144.22;100.00;60274.75;6272995;28;20629;-67
2022/12/25 09:56:24;;;;;;;4.73;2.10;;;;;;;-144.22;100.00;60274.75;6290240;28;20724;-67
2022/12/25 09:59:27;;;;;;;4.47;2.20;;;;;;;-144.22;100.00;60274.75;6289991;28;20233;-68
2022/12/25 10:02:45;;;;;;;5.00;2.20;;;;;;;-144.22;100.00;60274.75;6273429;28;20234;-67
2022/12/25 10:06:03;;;;;;;5.13;1.70;;;;;;;-144.22;100.00;60274.75;6271110;28;20743;-68
2022/12/25 10:09:34;;;;;;;5.17;1.83;;;;;;;-144.22;100.00;60274.75;6293403;28;20327;-68
2022/12/25 10:12:48;;;;;;;2.40;1.10;;;;;;;-144.22;100.00;60274.75;6247406;28;20324;-67
2022/12/25 10:16:17;;;;;;;4.10;1.40;;;;;;;-144.22;100.00;60274.75;6289605;28;20244;-67
2022/12/25 10:19:43;;;;;;;4.53;1.77;;;;;;;-144.22;100.00;60274.75;6288431;28;20245;-67
2022/12/25 10:22:59;;;;;;;2.27;1.30;;;;;;;-144.22;100.00;60274.75;6289255;28;20271;-66
2022/12/25 10:26:03;;;;;;;5.47;1.73;;;;;;;-144.22;100.00;60274.75;6289087;28;20242;-67
2022/12/25 10:29:15;;;;;;;3.80;1.60;;;;;;;-144.22;100.00;60274.75;6271669;28;20613;-67
2022/12/25 10:32:17;;;;;;;3.23;1.50;;;;;;;-144.22;100.00;60274.75;6289625;28;20707;-67
2022/12/25 10:35:22;;;;;;;3.07;1.23;;;;;;;-144.22;100.00;60274.75;6290507;28;20223;-67
2022/12/25 10:38:24;;;;;;;4.43;1.57;;;;;;;-144.22;100.00;60274.75;6286665;28;20238;-67
2022/12/25 10:41:44;;;;;;;4.80;1.63;;;;;;;-144.22;100.00;60274.75;6289256;28;20306;-67
2022/12/25 10:44:58;;;;;;;3.87;1.27;;;;;;;-144.22;100.00;60274.75;6289071;28;20234;-67
2022/12/25 10:48:04;;;;;;;5.33;1.43;;;;;;;-144.22;100.00;60274.75;6279111;28;20238;-67
2022/12/25 10:51:08;;;;;;;3.00;1.43;;;;;;;-144.22;100.00;60274.75;6291990;28;20240;-67
2022/12/25 10:54:21;;;;;;;4.13;1.50;;;;;;;-144.22;100.00;60274.75;6290767;28;20221;-67
2022/12/25 10:57:25;;;;;;;2.97;1.30;;;;;;;-144.22;100.00;60274.75;6287893;28;20685;-67
2022/12/25 11:00:30;;;;;;;3.50;1.23;;;;;;;-144.22;100.00;60274.75;6288483;28;20660;-67
2022/12/25 11:03:35;;;;;;;3.17;1.53;;;;;;;-144.22;100.00;60274.75;6290317;28;20234;-67
2022/12/25 11:06:38;;;;;;;5.73;1.67;;;;;;;-144.22;100.00;60274.75;6284634;28;20239;-67
2022/12/25 11:10:07;;;;;;;3.10;1.30;;;;;;;-144.22;100.00;60274.75;6285136;28;20217;-67
2022/12/25 11:13:25;;;;;;;3.17;1.57;;;;;;;-144.22;100.00;60274.75;6259947;28;20233;-67
2022/12/25 11:16:34;;;;;;;3.03;1.67;;;;;;;-144.22;100.00;60274.75;6288185;28;20242;-67
2022/12/25 11:19:37;;;;;;;2.67;1.33;;;;;;;-144.22;100.00;60274.75;6295377;28;20601;-67
2022/12/25 11:22:44;;;;;;;2.37;1.30;;;;;;;-144.22;100.00;60274.75;6275234;28;20263;-67
2022/12/25 11:26:05;;;;;;;3.70;1.30;;;;;;;-144.22;100.00;60274.75;6291950;28;20318;-67
2022/12/25 11:29:23;;;;;;;4.30;1.60;;;;;;;-144.22;100.00;60274.75;6290211;28;20641;-67
2022/12/25 11:32:33;;;;;;;7.00;1.80;;;;;;;-144.22;100.00;60274.75;6274257;28;20237;-67
2022/12/25 11:36:23;;;;;;;4.07;1.77;;;;;;;-144.22;100.00;60274.75;6293704;28;20653;-67
2022/12/25 11:39:31;;;;;;;4.93;1.60;;;;;;;-144.22;100.00;60274.75;6210495;28;20225;-67
2022/12/25 11:42:37;;;;;;;3.37;1.70;;;;;;;-144.22;100.00;60274.75;6293056;28;20313;-67
2022/12/25 11:45:55;;;;;;;3.10;1.70;;;;;;;-144.22;100.00;60274.75;6292795;28;20297;-67
2022/12/25 11:49:00;;;;;;;1.70;1.57;;;;;;;-144.22;100.00;60274.75;6291725;28;20265;-68
2022/12/25 11:52:05;;;;;;;2.80;1.70;;;;;;;-144.22;100.00;60274.75;6294841;28;20237;-67
2022/12/25 11:55:20;;;;;;;3.30;1.60;;;;;;;-144.22;100.00;60274.75;6276115;28;20294;-67
2022/12/25 11:58:34;;;;;;;3.27;2.00;;;;;;;-144.22;100.00;60274.75;6292413;28;20234;-67
2022/12/25 12:01:58;;;;;;;2.23;1.50;;;;;;;-144.22;100.00;60274.75;6290859;28;20317;-68
2022/12/25 12:05:18;;;;;;;3.33;1.60;;;;;;;-144.22;100.00;60274.75;6271546;28;20234;-67
2022/12/25 12:08:20;;;;;;;3.70;1.70;;;;;;;-144.22;100.00;60274.75;6290087;28;20281;-67
2022/12/25 12:11:40;;;;;;;3.70;2.00;;;;;;;-144.22;100.00;60274.75;6274899;28;20253;-67
2022/12/25 12:14:53;;;;;;;5.93;2.40;;;;;;;-144.22;100.00;60274.75;6292145;28;20233;-67
2022/12/25 12:18:20;;;;;;;3.10;1.77;;;;;;;-144.22;100.00;60274.75;6292764;28;20716;-68
2022/12/25 12:21:29;;;;;;;4.10;2.00;;;;;;;-144.22;100.00;60274.75;6292366;28;20703;-67
2022/12/25 12:24:34;;;;;;;4.17;1.97;;;;;;;-144.22;100.00;60274.75;6274512;28;20236;-67
2022/12/25 12:27:39;;;;;;;4.07;2.17;;;;;;;-144.22;100.00;60274.75;6291694;28;20290;-67
2022/12/25 12:30:41;;;;;;;3.10;1.77;;;;;;;-144.22;100.00;60274.75;6295227;28;20713;-67
2022/12/25 12:33:57;;;;;;;3.63;2.07;;;;;;;-144.22;100.00;60274.75;6281853;28;20230;-67
2022/12/25 12:37:13;;;;;;;3.33;2.27;;;;;;;-144.22;100.00;60274.75;6265833;28;20279;-67
2022/12/25 12:40:26;;;;;;;3.77;2.27;;;;;;;-144.22;100.00;60274.75;6288319;28;20701;-67
2022/12/25 12:43:46;;;;;;;3.67;1.70;;;;;;;-144.22;100.00;60274.75;6292444;28;20842;-67
2022/12/25 12:46:56;;;;;;;3.63;2.00;;;;;;;-144.22;100.00;60274.75;6275456;28;20224;-67
2022/12/25 12:49:59;;;;;;;2.33;1.70;;;;;;;-144.22;100.00;60274.75;6296969;28;20227;-68
2022/12/25 12:53:27;;;;;;;3.70;2.10;;;;;;;-144.22;100.00;60274.75;6291768;28;20712;-68
2022/12/25 12:56:29;;;;;;;3.73;2.63;;;;;;;-144.22;100.00;60274.75;6297521;28;20705;-67
2022/12/25 12:59:45;;;;;;;4.53;1.70;;;;;;;10.66;82.69;97022.53;6270517;28;20295;-67
2022/12/25 13:03:40;;;;;;;2.97;1.73;;;;;;;-144.22;100.00;60274.75;6292374;28;20237;-67
2022/12/25 13:06:50;;;;;;;3.30;1.80;;;;;;;-144.22;100.00;60274.75;6269866;28;20692;-67
2022/12/25 13:10:11;;;;;;;3.47;2.00;;;;;;;-144.22;100.00;60274.75;6292801;28;20222;-67
2022/12/25 13:13:22;;;;;;;2.27;1.83;;;;;;;-144.22;100.00;60274.75;6290659;28;20753;-67
2022/12/25 13:16:30;;;;;;;3.53;2.07;;;;;;;-144.22;100.00;60274.75;6293970;28;20234;-67
2022/12/25 13:19:35;;;;;;;3.10;2.03;;;;;;;-144.22;100.00;60274.75;6294549;28;20233;-67
2022/12/25 13:22:37;;;;;;;3.97;2.27;;;;;;;-144.22;100.00;60274.75;6291642;28;20645;-67
2022/12/25 13:25:39;;;;;;;4.70;2.63;;;;;;;-144.22;100.00;60274.75;6290965;28;20700;-67
2022/12/25 13:28:44;;;;;;;3.93;2.30;;;;;;;-144.22;100.00;60274.75;6291564;28;20704;-67
2022/12/25 13:31:47;;;;;;;5.10;2.20;;;;;;;-144.22;100.00;60274.75;6275918;28;20302;-67
2022/12/25 13:34:50;;;;;;;4.10;1.87;;;;;;;-144.22;100.00;60274.75;6291691;28;20712;-67
2022/12/25 13:37:53;;;;;;;3.37;2.20;;;;;;;-144.22;100.00;60274.75;6290949;28;20283;-68
2022/12/25 13:44:23;;;;;;;5.10;2.83;;;;;;;-144.22;100.00;60274.75;6273449;28;20265;-67
2022/12/25 13:47:31;;;;;;;4.60;2.53;;;;;;;-144.22;100.00;60274.75;6294582;28;20730;-67
2022/12/25 13:50:34;;;;;;;4.20;2.60;;;;;;;-144.22;100.00;60274.75;6273657;28;20701;-67
2022/12/25 13:53:36;;;;;;;3.93;2.83;;;;;;;-144.22;100.00;60274.75;6290099;28;20234;-67
2022/12/25 13:56:50;;;;;;;3.33;2.50;;;;;;;-144.22;100.00;60274.75;6272203;28;20241;-67
2022/12/25 13:59:52;;;;;;;6.20;2.20;;;;;;;-144.22;100.00;60274.75;6288054;28;20721;-67
2022/12/25 14:02:54;;;;;;;3.33;1.87;;;;;;;-144.22;100.00;60274.75;6274150;28;20719;-68
2022/12/25 14:06:00;;;;;;;3.07;2.13;;;;;;;-144.22;100.00;60274.75;6289798;28;20215;-67
2022/12/25 14:09:03;;;;;;;4.17;2.30;;;;;;;-144.22;100.00;60274.75;6291171;28;20289;-67
2022/12/25 14:12:06;;;;;;;4.63;2.20;;;;;;;-144.22;100.00;60274.75;6271600;28;20266;-67
2022/12/25 14:15:15;;;;;;;2.93;1.90;;;;;;;-144.22;100.00;60274.75;6290789;28;20685;-67
2022/12/25 14:18:20;;;;;;;3.50;2.00;;;;;;;-144.22;100.00;60274.75;6281117;28;20250;-67
2022/12/25 14:21:33;;;;;;;4.43;2.30;;;;;;;-144.22;100.00;60274.75;6287422;28;20231;-67
2022/12/25 14:24:36;;;;;;;3.00;2.13;;;;;;;-144.22;100.00;60274.75;6289717;28;20805;-67
2022/12/25 14:27:38;;;;;;;4.33;2.70;;;;;;;-144.22;100.00;60274.75;6289184;28;20225;-67
2022/12/25 14:30:41;;;;;;;5.97;3.63;;;;;;;-144.22;100.00;60274.75;6292207;28;20606;-67
2022/12/25 14:33:45;;;;;;;3.60;2.20;;;;;;;-144.22;100.00;60274.75;6290075;28;20225;-67
2022/12/25 14:36:48;;;;;;;2.77;2.43;;;;;;;-144.22;100.00;60274.75;6287959;28;20234;-67
2022/12/25 14:40:03;;;;;;;3.60;2.70;;;;;;;-144.22;100.00;60274.75;6288013;28;20255;-67
2022/12/25 14:43:23;;;;;;;5.80;3.10;;;;;;;-144.22;100.00;60274.75;6277763;28;20770;-68
2022/12/25 14:46:29;;;;;;;4.13;3.10;;;;;;;-144.22;100.00;60274.75;6286684;28;20357;-67
2022/12/25 14:49:31;;;;;;;3.80;2.67;;;;;;;-144.22;100.00;60274.75;6290476;28;20235;-67
2022/12/25 14:52:42;;;;;;;3.93;2.90;;;;;;;-144.22;100.00;60274.75;6271926;28;20233;-67
2022/12/25 14:55:50;;;;;;;5.90;2.87;;;;;;;-144.22;100.00;60274.75;6289449;28;20316;-68
2022/12/25 14:58:57;;;;;;;6.00;3.13;;;;;;;-144.22;100.00;60274.75;6290818;28;20226;-67
2022/12/25 15:02:00;;;;;;;4.53;3.27;;;;;;;-144.22;100.00;60274.75;6290056;28;20234;-67
2022/12/25 15:05:02;;;;;;;5.30;3.23;;;;;;;-144.22;100.00;60274.75;6292770;28;20271;-67
2022/12/25 15:08:19;;;;;;;5.87;3.80;;;;;;;-144.22;100.00;60274.75;6288072;28;20225;-67
2022/12/25 15:11:21;;;;;;;5.43;4.17;;;;;;;-144.22;100.00;60274.75;6290396;28;20587;-67
2022/12/25 15:14:24;;;;;;;5.60;4.00;;;;;;;-144.22;100.00;60274.75;6291980;28;20225;-67
2022/12/25 15:17:29;;;;;;;5.23;4.30;;;;;;;-144.22;100.00;60274.75;6287673;28;20237;-67
2022/12/25 15:20:33;;;;;;;5.93;4.20;;;;;;;-144.22;100.00;60274.75;6289494;28;20253;-67
2022/12/25 15:23:35;;;;;;;5.03;3.97;;;;;;;-144.22;100.00;60274.75;6292134;28;20232;-68
2022/12/25 15:26:38;;;;;;;5.80;4.70;;;;;;;-144.22;100.00;60274.75;6270494;28;20232;-67
2022/12/25 15:29:40;;;;;;;6.73;5.10;;;;;;;-144.22;100.00;60274.75;6287382;28;20362;-67
2022/12/25 15:33:02;;;;;;;6.03;4.90;;;;;;;-144.22;100.00;60274.75;6273959;28;20266;-67
2022/12/25 15:36:04;;;;;;;8.13;5.93;;;;;;;-144.22;100.00;60274.75;6275954;28;20730;-67
2022/12/25 15:39:06;;;;;;;9.47;5.67;;;;;;;-144.22;100.00;60274.75;6271965;28;20252;-67
2022/12/25 15:42:17;;;;;;;9.50;7.30;;;;;;;-144.22;100.00;60274.75;6293399;28;20620;-67
2022/12/25 15:45:23;;;;;;;9.57;7.10;;;;;;;-144.22;100.00;60274.75;6289746;28;20739;-68
2022/12/25 15:48:25;;;;;;;9.90;7.73;;;;;;;-144.22;100.00;60274.75;6289674;28;20260;-67